sensor_id;sensor_type;location;lat;lon;timestamp;pressure;altitude;pressure_sealevel;temperature;humidity
46430;BME280;32131;53.454;-6.180;2023-02-16T00:01:25;101230.28;;;6.92;100.00
46430;BME280;32131;53.454;-6.180;2023-02-16T00:03:54;101228.53;;;6.91;100.00
46430;BME280;32131;53.454;-6.180;2023-02-16T00:06:23;101217.28;;;6.87;100.00
46430;BME280;32131;53.454;-6.180;2023-02-16T00:08:53;101227.59;;;6.89;100.00
46430;BME280;32131;53.454;-6.180;2023-02-16T00:11:22;101215.75;;;6.92;100.00
46430;BME280;32131;53.454;-6.180;2023-02-16T00:14:10;101209.00;;;6.95;100.00
46430;BME280;32131;53.454;-6.180;2023-02-16T00:16:38;101210.75;;;6.96;100.00
46430;BME280;32131;53.454;-6.180;2023-02-16T00:19:16;101207.31;;;6.95;100.00
46430;BME280;32131;53.454;-6.180;2023-02-16T00:21:44;101198.72;;;6.95;100.00
46430;BME280;32131;53.454;-6.180;2023-02-16T00:24:12;101203.84;;;6.95;100.00
46430;BME280;32131;53.454;-6.180;2023-02-16T00:26:42;101197.97;;;6.97;100.00
46430;BME280;32131;53.454;-6.180;2023-02-16T00:29:15;101189.44;;;6.98;100.00
46430;BME280;32131;53.454;-6.180;2023-02-16T00:31:43;101185.19;;;6.99;100.00
46430;BME280;32131;53.454;-6.180;2023-02-16T00:34:24;101183.56;;;7.01;100.00
46430;BME280;32131;53.454;-6.180;2023-02-16T00:36:52;101187.00;;;7.01;100.00
46430;BME280;32131;53.454;-6.180;2023-02-16T00:39:22;101179.34;;;7.03;100.00
46430;BME280;32131;53.454;-6.180;2023-02-16T00:45:17;101178.53;;;7.04;100.00
46430;BME280;32131;53.454;-6.180;2023-02-16T00:48:05;101178.66;;;7.07;100.00
46430;BME280;32131;53.454;-6.180;2023-02-16T00:50:44;101169.31;;;7.09;100.00
46430;BME280;32131;53.454;-6.180;2023-02-16T00:53:25;101176.25;;;7.12;100.00
46430;BME280;32131;53.454;-6.180;2023-02-16T00:55:56;101165.09;;;7.11;100.00
46430;BME280;32131;53.454;-6.180;2023-02-16T00:58:52;101166.16;;;7.16;100.00
46430;BME280;32131;53.454;-6.180;2023-02-16T01:01:47;101155.88;;;7.16;100.00
46430;BME280;32131;53.454;-6.180;2023-02-16T01:04:43;101154.28;;;7.20;100.00
46430;BME280;32131;53.454;-6.180;2023-02-16T01:07:26;101149.16;;;7.20;100.00
46430;BME280;32131;53.454;-6.180;2023-02-16T01:10:18;101140.69;;;7.22;100.00
46430;BME280;32131;53.454;-6.180;2023-02-16T01:13:05;101140.72;;;7.24;100.00
46430;BME280;32131;53.454;-6.180;2023-02-16T01:15:35;101137.34;;;7.25;100.00
46430;BME280;32131;53.454;-6.180;2023-02-16T01:18:12;101131.44;;;7.28;100.00
46430;BME280;32131;53.454;-6.180;2023-02-16T01:20:46;101125.56;;;7.30;100.00
46430;BME280;32131;53.454;-6.180;2023-02-16T01:23:16;101130.78;;;7.33;100.00
46430;BME280;32131;53.454;-6.180;2023-02-16T01:25:58;101129.09;;;7.34;100.00
46430;BME280;32131;53.454;-6.180;2023-02-16T01:28:33;101133.41;;;7.35;100.00
46430;BME280;32131;53.454;-6.180;2023-02-16T01:31:08;101141.22;;;7.38;100.00
46430;BME280;32131;53.454;-6.180;2023-02-16T01:33:38;101136.19;;;7.41;100.00
46430;BME280;32131;53.454;-6.180;2023-02-16T01:36:20;101131.97;;;7.43;100.00
46430;BME280;32131;53.454;-6.180;2023-02-16T01:38:52;101121.75;;;7.45;100.00
46430;BME280;32131;53.454;-6.180;2023-02-16T01:41:27;101132.06;;;7.46;100.00
46430;BME280;32131;53.454;-6.180;2023-02-16T01:43:59;101127.88;;;7.48;100.00
46430;BME280;32131;53.454;-6.180;2023-02-16T01:46:36;101123.66;;;7.50;100.00
46430;BME280;32131;53.454;-6.180;2023-02-16T01:49:11;101122.91;;;7.53;100.00
46430;BME280;32131;53.454;-6.180;2023-02-16T01:51:47;101127.25;;;7.55;100.00
46430;BME280;32131;53.454;-6.180;2023-02-16T01:54:25;101123.09;;;7.59;100.00
46430;BME280;32131;53.454;-6.180;2023-02-16T01:57:02;101118.00;;;7.61;100.00
46430;BME280;32131;53.454;-6.180;2023-02-16T01:59:40;101124.97;;;7.63;100.00
46430;BME280;32131;53.454;-6.180;2023-02-16T02:02:13;101117.34;;;7.66;100.00
46430;BME280;32131;53.454;-6.180;2023-02-16T02:04:47;101120.88;;;7.70;100.00
46430;BME280;32131;53.454;-6.180;2023-02-16T02:07:39;101114.91;;;7.71;100.00
46430;BME280;32131;53.454;-6.180;2023-02-16T02:10:13;101117.50;;;7.71;100.00
46430;BME280;32131;53.454;-6.180;2023-02-16T02:12:48;101116.72;;;7.74;100.00
46430;BME280;32131;53.454;-6.180;2023-02-16T02:15:21;101098.72;;;7.74;100.00
46430;BME280;32131;53.454;-6.180;2023-02-16T02:17:51;101098.78;;;7.75;100.00
46430;BME280;32131;53.454;-6.180;2023-02-16T02:20:26;101092.75;;;7.75;100.00
46430;BME280;32131;53.454;-6.180;2023-02-16T02:23:38;101095.41;;;7.76;100.00
46430;BME280;32131;53.454;-6.180;2023-02-16T02:29:39;101098.00;;;7.78;100.00
46430;BME280;32131;53.454;-6.180;2023-02-16T02:32:19;101098.03;;;7.79;100.00
46430;BME280;32131;53.454;-6.180;2023-02-16T02:35:03;101083.44;;;7.78;100.00
46430;BME280;32131;53.454;-6.180;2023-02-16T02:37:44;101091.91;;;7.74;100.00
46430;BME280;32131;53.454;-6.180;2023-02-16T02:40:20;101086.44;;;7.65;100.00
46430;BME280;32131;53.454;-6.180;2023-02-16T02:42:58;101079.25;;;7.54;100.00
46430;BME280;32131;53.454;-6.180;2023-02-16T02:45:33;101073.91;;;7.48;100.00
46430;BME280;32131;53.454;-6.180;2023-02-16T02:48:03;101073.88;;;7.47;100.00
46430;BME280;32131;53.454;-6.180;2023-02-16T02:50:38;101077.19;;;7.44;100.00
46430;BME280;32131;53.454;-6.180;2023-02-16T02:53:11;101089.03;;;7.39;100.00
46430;BME280;32131;53.454;-6.180;2023-02-16T02:55:42;101085.44;;;7.34;100.00
46430;BME280;32131;53.454;-6.180;2023-02-16T02:58:31;101086.94;;;7.29;100.00
46430;BME280;32131;53.454;-6.180;2023-02-16T03:01:20;101086.94;;;7.29;100.00
46430;BME280;32131;53.454;-6.180;2023-02-16T03:03:51;101092.09;;;7.29;100.00
46430;BME280;32131;53.454;-6.180;2023-02-16T03:06:23;101102.88;;;7.44;100.00
46430;BME280;32131;53.454;-6.180;2023-02-16T03:08:56;101098.78;;;7.49;100.00
46430;BME280;32131;53.454;-6.180;2023-02-16T03:11:27;101103.63;;;7.66;100.00
46430;BME280;32131;53.454;-6.180;2023-02-16T03:14:16;101105.75;;;7.79;100.00
46430;BME280;32131;53.454;-6.180;2023-02-16T03:16:49;101106.06;;;7.89;100.00
46430;BME280;32131;53.454;-6.180;2023-02-16T03:19:39;101104.63;;;7.97;100.00
46430;BME280;32131;53.454;-6.180;2023-02-16T03:22:25;101104.13;;;8.09;100.00
46430;BME280;32131;53.454;-6.180;2023-02-16T03:25:12;101106.16;;;8.19;100.00
46430;BME280;32131;53.454;-6.180;2023-02-16T03:27:59;101098.31;;;8.14;100.00
46430;BME280;32131;53.454;-6.180;2023-02-16T03:30:47;101109.53;;;8.16;100.00
46430;BME280;32131;53.454;-6.180;2023-02-16T03:33:19;101106.16;;;8.19;100.00
46430;BME280;32131;53.454;-6.180;2023-02-16T03:35:48;101110.53;;;8.22;100.00
46430;BME280;32131;53.454;-6.180;2023-02-16T03:38:16;101100.19;;;8.20;100.00
46430;BME280;32131;53.454;-6.180;2023-02-16T03:40:46;101098.44;;;8.19;100.00
46430;BME280;32131;53.454;-6.180;2023-02-16T03:43:15;101090.84;;;8.22;100.00
46430;BME280;32131;53.454;-6.180;2023-02-16T03:45:44;101090.84;;;8.22;100.00
46430;BME280;32131;53.454;-6.180;2023-02-16T03:48:12;101088.47;;;8.30;100.00
46430;BME280;32131;53.454;-6.180;2023-02-16T03:50:42;101086.94;;;8.35;100.00
46430;BME280;32131;53.454;-6.180;2023-02-16T03:53:10;101080.19;;;8.39;100.00
46430;BME280;32131;53.454;-6.180;2023-02-16T03:55:39;101081.88;;;8.38;100.00
46430;BME280;32131;53.454;-6.180;2023-02-16T03:58:12;101081.34;;;8.48;100.00
46430;BME280;32131;53.454;-6.180;2023-02-16T04:00:40;101085.84;;;8.56;100.00
46430;BME280;32131;53.454;-6.180;2023-02-16T04:03:09;101094.56;;;8.61;100.00
46430;BME280;32131;53.454;-6.180;2023-02-16T04:05:37;101092.88;;;8.61;100.00
46430;BME280;32131;53.454;-6.180;2023-02-16T04:08:07;101085.19;;;8.63;100.00
46430;BME280;32131;53.454;-6.180;2023-02-16T04:10:37;101082.78;;;8.69;100.00
46430;BME280;32131;53.454;-6.180;2023-02-16T04:13:05;101094.09;;;8.74;100.00
46430;BME280;32131;53.454;-6.180;2023-02-16T04:15:33;101088.03;;;8.72;100.00
46430;BME280;32131;53.454;-6.180;2023-02-16T04:18:01;101093.19;;;8.72;100.00
46430;BME280;32131;53.454;-6.180;2023-02-16T04:20:31;101093.97;;;8.70;100.00
46430;BME280;32131;53.454;-6.180;2023-02-16T04:22:59;101097.38;;;8.69;100.00
46430;BME280;32131;53.454;-6.180;2023-02-16T04:25:29;101098.34;;;8.72;100.00
46430;BME280;32131;53.454;-6.180;2023-02-16T04:27:57;101100.91;;;8.72;100.00
46430;BME280;32131;53.454;-6.180;2023-02-16T04:30:28;101106.09;;;8.74;100.00
46430;BME280;32131;53.454;-6.180;2023-02-16T04:32:57;101101.91;;;8.77;100.00
46430;BME280;32131;53.454;-6.180;2023-02-16T04:35:25;101097.78;;;8.83;100.00
46430;BME280;32131;53.454;-6.180;2023-02-16T04:37:53;101100.41;;;8.86;100.00
46430;BME280;32131;53.454;-6.180;2023-02-16T04:40:22;101099.81;;;8.94;100.00
46430;BME280;32131;53.454;-6.180;2023-02-16T04:42:51;101105.09;;;8.99;100.00
46430;BME280;32131;53.454;-6.180;2023-02-16T04:45:19;101110.34;;;9.02;100.00
46430;BME280;32131;53.454;-6.180;2023-02-16T04:47:47;101106.97;;;9.05;100.00
46430;BME280;32131;53.454;-6.180;2023-02-16T04:50:15;101108.78;;;9.09;100.00
46430;BME280;32131;53.454;-6.180;2023-02-16T04:52:43;101114.06;;;9.13;100.00
46430;BME280;32131;53.454;-6.180;2023-02-16T04:55:11;101118.44;;;9.16;100.00
46430;BME280;32131;53.454;-6.180;2023-02-16T04:57:48;101121.97;;;9.20;100.00
46430;BME280;32131;53.454;-6.180;2023-02-16T05:00:19;101120.31;;;9.22;100.00
46430;BME280;32131;53.454;-6.180;2023-02-16T05:02:47;101122.19;;;9.27;100.00
46430;BME280;32131;53.454;-6.180;2023-02-16T05:05:15;101118.75;;;9.27;100.00
46430;BME280;32131;53.454;-6.180;2023-02-16T05:07:43;101132.47;;;9.27;100.00
46430;BME280;32131;53.454;-6.180;2023-02-16T05:10:11;101142.81;;;9.29;100.00
46430;BME280;32131;53.454;-6.180;2023-02-16T05:12:39;101131.69;;;9.30;100.00
46430;BME280;32131;53.454;-6.180;2023-02-16T05:15:26;101142.88;;;9.31;100.00
46430;BME280;32131;53.454;-6.180;2023-02-16T05:17:54;101148.06;;;9.32;100.00
46430;BME280;32131;53.454;-6.180;2023-02-16T05:20:22;101141.19;;;9.33;100.00
46430;BME280;32131;53.454;-6.180;2023-02-16T05:23:11;101144.69;;;9.35;100.00
46430;BME280;32131;53.454;-6.180;2023-02-16T05:25:39;101156.78;;;9.37;100.00
46430;BME280;32131;53.454;-6.180;2023-02-16T05:28:07;101149.97;;;9.39;100.00
46430;BME280;32131;53.454;-6.180;2023-02-16T05:30:36;101131.06;;;9.39;100.00
46430;BME280;32131;53.454;-6.180;2023-02-16T05:33:04;101138.84;;;9.40;100.00
46430;BME280;32131;53.454;-6.180;2023-02-16T05:35:33;101144.84;;;9.41;100.00
46430;BME280;32131;53.454;-6.180;2023-02-16T05:38:01;101139.75;;;9.42;100.00
46430;BME280;32131;53.454;-6.180;2023-02-16T05:40:29;101159.56;;;9.43;100.00
46430;BME280;32131;53.454;-6.180;2023-02-16T05:42:57;101165.53;;;9.42;100.00
46430;BME280;32131;53.454;-6.180;2023-02-16T05:45:25;101172.44;;;9.43;100.00
46430;BME280;32131;53.454;-6.180;2023-02-16T05:47:54;101177.59;;;9.43;100.00
46430;BME280;32131;53.454;-6.180;2023-02-16T05:50:22;101179.31;;;9.44;100.00
46430;BME280;32131;53.454;-6.180;2023-02-16T05:52:50;101177.50;;;9.40;100.00
46430;BME280;32131;53.454;-6.180;2023-02-16T05:55:18;101188.53;;;9.36;100.00
46430;BME280;32131;53.454;-6.180;2023-02-16T05:57:46;101195.31;;;9.33;100.00
46430;BME280;32131;53.454;-6.180;2023-02-16T06:00:15;101198.56;;;9.25;100.00
46430;BME280;32131;53.454;-6.180;2023-02-16T06:02:43;101204.41;;;9.20;100.00
46430;BME280;32131;53.454;-6.180;2023-02-16T06:05:12;101218.09;;;9.17;100.00
46430;BME280;32131;53.454;-6.180;2023-02-16T06:07:40;101224.13;;;9.18;100.00
46430;BME280;32131;53.454;-6.180;2023-02-16T06:10:08;101220.78;;;9.22;100.00
46430;BME280;32131;53.454;-6.180;2023-02-16T06:12:36;101216.56;;;9.24;100.00
46430;BME280;32131;53.454;-6.180;2023-02-16T06:15:05;101233.84;;;9.28;100.00
46430;BME280;32131;53.454;-6.180;2023-02-16T06:17:33;101240.00;;;9.32;100.00
46430;BME280;32131;53.454;-6.180;2023-02-16T06:20:01;101234.03;;;9.34;100.00
46430;BME280;32131;53.454;-6.180;2023-02-16T06:22:31;101234.91;;;9.35;100.00
46430;BME280;32131;53.454;-6.180;2023-02-16T06:24:59;101237.50;;;9.36;100.00
46430;BME280;32131;53.454;-6.180;2023-02-16T06:27:27;101237.50;;;9.36;100.00
46430;BME280;32131;53.454;-6.180;2023-02-16T06:29:56;101232.34;;;9.36;100.00
46430;BME280;32131;53.454;-6.180;2023-02-16T06:32:24;101228.88;;;9.34;100.00
46430;BME280;32131;53.454;-6.180;2023-02-16T06:34:52;101225.47;;;9.35;100.00
46430;BME280;32131;53.454;-6.180;2023-02-16T06:37:20;101225.47;;;9.35;100.00
46430;BME280;32131;53.454;-6.180;2023-02-16T06:39:50;101234.09;;;9.37;100.00
46430;BME280;32131;53.454;-6.180;2023-02-16T06:42:18;101249.66;;;9.40;100.00
46430;BME280;32131;53.454;-6.180;2023-02-16T06:44:46;101251.41;;;9.41;100.00
46430;BME280;32131;53.454;-6.180;2023-02-16T06:47:14;101249.66;;;9.40;100.00
46430;BME280;32131;53.454;-6.180;2023-02-16T06:49:42;101246.22;;;9.40;100.00
46430;BME280;32131;53.454;-6.180;2023-02-16T06:52:10;101246.16;;;9.38;100.00
46430;BME280;32131;53.454;-6.180;2023-02-16T06:54:38;101245.25;;;9.36;100.00
46430;BME280;32131;53.454;-6.180;2023-02-16T06:57:08;101246.09;;;9.35;100.00
46430;BME280;32131;53.454;-6.180;2023-02-16T06:59:36;101253.75;;;9.34;100.00
46430;BME280;32131;53.454;-6.180;2023-02-16T07:02:04;101245.06;;;9.30;100.00
46430;BME280;32131;53.454;-6.180;2023-02-16T07:04:32;101250.19;;;9.28;100.00
46430;BME280;32131;53.454;-6.180;2023-02-16T07:07:00;101268.19;;;9.27;100.00
46430;BME280;32131;53.454;-6.180;2023-02-16T07:09:28;101268.19;;;9.27;100.00
46430;BME280;32131;53.454;-6.180;2023-02-16T07:11:57;101271.50;;;9.23;100.00
46430;BME280;32131;53.454;-6.180;2023-02-16T07:14:27;101263.66;;;9.20;100.00
46430;BME280;32131;53.454;-6.180;2023-02-16T07:16:55;101265.34;;;9.18;100.00
46430;BME280;32131;53.454;-6.180;2023-02-16T07:19:24;101269.56;;;9.16;100.00
46430;BME280;32131;53.454;-6.180;2023-02-16T07:21:52;101278.13;;;9.15;100.00
46430;BME280;32131;53.454;-6.180;2023-02-16T07:24:20;101276.34;;;9.12;100.00
46430;BME280;32131;53.454;-6.180;2023-02-16T07:26:48;101278.81;;;9.09;100.00
46430;BME280;32131;53.454;-6.180;2023-02-16T07:29:17;101285.63;;;9.07;100.00
46430;BME280;32131;53.454;-6.180;2023-02-16T07:31:46;101283.78;;;9.03;100.00
46430;BME280;32131;53.454;-6.180;2023-02-16T07:34:15;101294.94;;;9.03;100.00
46430;BME280;32131;53.454;-6.180;2023-02-16T07:36:44;101298.47;;;9.05;100.00
46430;BME280;32131;53.454;-6.180;2023-02-16T07:39:12;101303.53;;;9.02;100.00
46430;BME280;32131;53.454;-6.180;2023-02-16T07:41:40;101294.88;;;9.00;100.00
46430;BME280;32131;53.454;-6.180;2023-02-16T07:44:08;101299.91;;;8.97;100.00
46430;BME280;32131;53.454;-6.180;2023-02-16T07:46:36;101295.44;;;8.91;100.00
46430;BME280;32131;53.454;-6.180;2023-02-16T07:49:06;101297.88;;;8.87;100.00
46430;BME280;32131;53.454;-6.180;2023-02-16T07:51:34;101298.69;;;8.86;100.00
46430;BME280;32131;53.454;-6.180;2023-02-16T07:54:02;101307.19;;;8.81;100.00
46430;BME280;32131;53.454;-6.180;2023-02-16T07:56:32;101301.19;;;8.83;100.00
46430;BME280;32131;53.454;-6.180;2023-02-16T07:59:01;101316.84;;;8.89;100.00
46430;BME280;32131;53.454;-6.180;2023-02-16T08:01:30;101319.66;;;8.96;100.00
46430;BME280;32131;53.454;-6.180;2023-02-16T08:03:58;101327.63;;;9.04;100.00
46430;BME280;32131;53.454;-6.180;2023-02-16T08:06:28;101350.09;;;9.08;100.00
46430;BME280;32131;53.454;-6.180;2023-02-16T08:08:56;101350.94;;;9.09;100.00
46430;BME280;32131;53.454;-6.180;2023-02-16T08:11:26;101354.50;;;9.12;100.00
46430;BME280;32131;53.454;-6.180;2023-02-16T08:13:54;101351.28;;;9.20;100.00
46430;BME280;32131;53.454;-6.180;2023-02-16T08:16:23;101356.63;;;9.26;100.00
46430;BME280;32131;53.454;-6.180;2023-02-16T08:18:54;101368.75;;;9.28;100.00
46430;BME280;32131;53.454;-6.180;2023-02-16T08:21:24;101371.34;;;9.30;100.00
46430;BME280;32131;53.454;-6.180;2023-02-16T08:23:56;101379.16;;;9.32;100.00
46430;BME280;32131;53.454;-6.180;2023-02-16T08:26:26;101397.22;;;9.33;100.00
46430;BME280;32131;53.454;-6.180;2023-02-16T08:39:39;101409.47;;;9.40;100.00
46430;BME280;32131;53.454;-6.180;2023-02-16T08:42:10;101418.00;;;9.38;100.00
46430;BME280;32131;53.454;-6.180;2023-02-16T08:44:39;101421.13;;;9.29;100.00
46430;BME280;32131;53.454;-6.180;2023-02-16T08:47:08;101419.34;;;9.26;100.00
46430;BME280;32131;53.454;-6.180;2023-02-16T08:49:36;101413.34;;;9.26;100.00
46430;BME280;32131;53.454;-6.180;2023-02-16T08:52:05;101427.22;;;9.31;100.00
46430;BME280;32131;53.454;-6.180;2023-02-16T08:54:33;101416.28;;;9.38;100.00
46430;BME280;32131;53.454;-6.180;2023-02-16T08:57:03;101430.28;;;9.47;100.00
46430;BME280;32131;53.454;-6.180;2023-02-16T08:59:32;101428.81;;;9.55;100.00
46430;BME280;32131;53.454;-6.180;2023-02-16T09:02:01;101410.84;;;9.56;100.00
46430;BME280;32131;53.454;-6.180;2023-02-16T09:04:29;101425.50;;;9.59;100.00
46430;BME280;32131;53.454;-6.180;2023-02-16T09:06:58;101421.16;;;9.56;100.00
46430;BME280;32131;53.454;-6.180;2023-02-16T09:09:27;101439.34;;;9.61;100.00
46430;BME280;32131;53.454;-6.180;2023-02-16T09:11:55;101440.22;;;9.63;100.00
46430;BME280;32131;53.454;-6.180;2023-02-16T09:14:25;101432.59;;;9.66;100.00
46430;BME280;32131;53.454;-6.180;2023-02-16T09:16:54;101443.09;;;9.72;100.00
46430;BME280;32131;53.454;-6.180;2023-02-16T09:19:23;101445.69;;;9.72;100.00
46430;BME280;32131;53.454;-6.180;2023-02-16T09:21:51;101452.41;;;9.67;100.00
46430;BME280;32131;53.454;-6.180;2023-02-16T09:24:22;101454.03;;;9.64;100.00
46430;BME280;32131;53.454;-6.180;2023-02-16T09:26:51;101448.66;;;9.57;100.00
46430;BME280;32131;53.454;-6.180;2023-02-16T09:29:19;101440.78;;;9.53;100.00
46430;BME280;32131;53.454;-6.180;2023-02-16T09:31:48;101439.88;;;9.51;100.00
46430;BME280;32131;53.454;-6.180;2023-02-16T09:34:20;101428.75;;;9.52;100.00
46430;BME280;32131;53.454;-6.180;2023-02-16T09:36:50;101452.81;;;9.52;100.00
46430;BME280;32131;53.454;-6.180;2023-02-16T09:39:18;101446.13;;;9.59;100.00
46430;BME280;32131;53.454;-6.180;2023-02-16T11:32:58;101560.53;;;10.17;96.42
46430;BME280;32131;53.454;-6.180;2023-02-16T11:35:41;101571.81;;;10.21;96.29
46430;BME280;32131;53.454;-6.180;2023-02-16T11:38:33;101570.25;;;10.26;95.87
46430;BME280;32131;53.454;-6.180;2023-02-16T11:41:26;101580.66;;;10.29;95.37
46430;BME280;32131;53.454;-6.180;2023-02-16T11:43:56;101582.63;;;10.36;95.15
46430;BME280;32131;53.454;-6.180;2023-02-16T11:46:26;101575.91;;;10.42;94.46
46430;BME280;32131;53.454;-6.180;2023-02-16T11:49:29;101557.88;;;10.43;94.12
46430;BME280;32131;53.454;-6.180;2023-02-16T11:52:29;101557.09;;;10.46;93.91
46430;BME280;32131;53.454;-6.180;2023-02-16T11:55:05;101546.94;;;10.52;93.71
46430;BME280;32131;53.454;-6.180;2023-02-16T11:57:52;101550.53;;;10.57;93.00
46430;BME280;32131;53.454;-6.180;2023-02-16T12:00:32;101541.41;;;10.70;92.71
46430;BME280;32131;53.454;-6.180;2023-02-16T12:03:36;101520.06;;;10.76;91.97
46430;BME280;32131;53.454;-6.180;2023-02-16T12:06:39;101529.63;;;10.80;91.03
46430;BME280;32131;53.454;-6.180;2023-02-16T12:09:26;101535.13;;;10.92;90.81
46430;BME280;32131;53.454;-6.180;2023-02-16T12:12:12;101524.81;;;10.94;90.16
46430;BME280;32131;53.454;-6.180;2023-02-16T12:15:36;101523.03;;;10.91;88.92
46430;BME280;32131;53.454;-6.180;2023-02-16T12:18:34;101513.63;;;10.93;87.94
46430;BME280;32131;53.454;-6.180;2023-02-16T12:21:44;101506.31;;;11.10;87.08
46430;BME280;32131;53.454;-6.180;2023-02-16T12:24:44;101512.81;;;11.29;85.84
46430;BME280;32131;53.454;-6.180;2023-02-16T12:27:19;101513.94;;;11.39;84.87
46430;BME280;32131;53.454;-6.180;2023-02-16T12:29:57;101507.03;;;11.40;84.09
46430;BME280;32131;53.454;-6.180;2023-02-16T12:32:47;101507.97;;;11.43;83.76
46430;BME280;32131;53.454;-6.180;2023-02-16T12:35:57;101514.88;;;11.43;83.93
46430;BME280;32131;53.454;-6.180;2023-02-16T12:38:45;101525.84;;;11.34;83.86
46430;BME280;32131;53.454;-6.180;2023-02-16T12:41:52;101518.06;;;11.32;83.99
46430;BME280;32131;53.454;-6.180;2023-02-16T12:44:39;101505.59;;;11.51;83.39
46430;BME280;32131;53.454;-6.180;2023-02-16T12:47:19;101500.16;;;11.77;83.35
46430;BME280;32131;53.454;-6.180;2023-02-16T12:50:05;101509.25;;;11.98;82.70
46430;BME280;32131;53.454;-6.180;2023-02-16T12:52:42;101500.84;;;12.08;82.62
46430;BME280;32131;53.454;-6.180;2023-02-16T12:56:16;101508.00;;;12.21;81.83
46430;BME280;32131;53.454;-6.180;2023-02-16T12:58:48;101511.69;;;12.31;81.51
46430;BME280;32131;53.454;-6.180;2023-02-16T13:01:24;101520.47;;;12.38;80.97
46430;BME280;32131;53.454;-6.180;2023-02-16T13:03:56;101516.88;;;12.33;80.55
46430;BME280;32131;53.454;-6.180;2023-02-16T13:06:30;101514.16;;;12.25;80.13
46430;BME280;32131;53.454;-6.180;2023-02-16T13:09:09;101514.81;;;12.16;79.97
46430;BME280;32131;53.454;-6.180;2023-02-16T13:11:48;101506.09;;;12.11;79.85
46430;BME280;32131;53.454;-6.180;2023-02-16T13:14:21;101506.19;;;12.16;80.30
46430;BME280;32131;53.454;-6.180;2023-02-16T13:16:53;101495.53;;;12.43;79.40
46430;BME280;32131;53.454;-6.180;2023-02-16T13:19:23;101494.22;;;12.65;79.05
46430;BME280;32131;53.454;-6.180;2023-02-16T13:22:14;101507.09;;;12.61;78.68
46430;BME280;32131;53.454;-6.180;2023-02-16T13:24:51;101499.91;;;12.47;78.58
46430;BME280;32131;53.454;-6.180;2023-02-16T13:27:31;101493.84;;;12.45;78.94
46430;BME280;32131;53.454;-6.180;2023-02-16T13:30:32;101491.84;;;12.32;78.67
46430;BME280;32131;53.454;-6.180;2023-02-16T13:33:17;101486.56;;;12.27;78.65
46430;BME280;32131;53.454;-6.180;2023-02-16T13:39:00;101465.09;;;12.33;79.02
46430;BME280;32131;53.454;-6.180;2023-02-16T13:41:56;101458.34;;;12.39;78.66
46430;BME280;32131;53.454;-6.180;2023-02-16T13:44:34;101449.03;;;12.51;78.38
46430;BME280;32131;53.454;-6.180;2023-02-16T13:47:06;101463.13;;;12.65;78.03
46430;BME280;32131;53.454;-6.180;2023-02-16T13:49:39;101457.19;;;12.71;77.54
46430;BME280;32131;53.454;-6.180;2023-02-16T13:52:11;101451.16;;;12.72;77.79
46430;BME280;32131;53.454;-6.180;2023-02-16T13:54:54;101452.78;;;12.65;77.72
46430;BME280;32131;53.454;-6.180;2023-02-16T13:57:57;101448.41;;;12.63;78.19
46430;BME280;32131;53.454;-6.180;2023-02-16T14:00:31;101449.25;;;12.62;78.18
46430;BME280;32131;53.454;-6.180;2023-02-16T14:03:01;101431.13;;;12.63;78.20
46430;BME280;32131;53.454;-6.180;2023-02-16T14:05:36;101437.34;;;12.71;78.07
46430;BME280;32131;53.454;-6.180;2023-02-16T14:08:10;101438.25;;;12.73;77.19
46430;BME280;32131;53.454;-6.180;2023-02-16T14:14:22;101423.38;;;12.65;76.09
46430;BME280;32131;53.454;-6.180;2023-02-16T14:17:24;101418.25;;;12.66;75.75
46430;BME280;32131;53.454;-6.180;2023-02-16T14:23:31;101441.06;;;12.87;75.43
46430;BME280;32131;53.454;-6.180;2023-02-16T14:26:21;101440.34;;;12.98;75.45
46430;BME280;32131;53.454;-6.180;2023-02-16T14:29:16;101430.06;;;13.01;75.15
46430;BME280;32131;53.454;-6.180;2023-02-16T14:32:20;101412.00;;;13.07;73.63
46430;BME280;32131;53.454;-6.180;2023-02-16T14:35:17;101419.84;;;13.12;73.69
46430;BME280;32131;53.454;-6.180;2023-02-16T14:44:39;101385.19;;;13.63;73.52
46430;BME280;32131;53.454;-6.180;2023-02-16T14:51:32;101381.50;;;13.47;72.47
46430;BME280;32131;53.454;-6.180;2023-02-16T14:54:35;101377.13;;;13.43;72.64
46430;BME280;32131;53.454;-6.180;2023-02-16T14:57:30;101372.06;;;13.52;72.95
46430;BME280;32131;53.454;-6.180;2023-02-16T15:00:31;101369.53;;;13.57;72.97
46430;BME280;32131;53.454;-6.180;2023-02-16T15:04:42;101368.53;;;13.47;72.77
46430;BME280;32131;53.454;-6.180;2023-02-16T15:11:33;101332.72;;;13.23;73.29
46430;BME280;32131;53.454;-6.180;2023-02-16T15:14:25;101343.03;;;13.18;74.30
46430;BME280;32131;53.454;-6.180;2023-02-16T15:17:28;101335.41;;;13.31;74.49
46430;BME280;32131;53.454;-6.180;2023-02-16T15:20:02;101337.22;;;13.33;74.40
46430;BME280;32131;53.454;-6.180;2023-02-16T15:22:41;101332.88;;;13.32;74.50
46430;BME280;32131;53.454;-6.180;2023-02-16T15:25:38;101331.84;;;13.23;75.33
46430;BME280;32131;53.454;-6.180;2023-02-16T15:31:14;101316.25;;;13.19;76.27
46430;BME280;32131;53.454;-6.180;2023-02-16T15:33:59;101315.31;;;13.13;76.91
46430;BME280;32131;53.454;-6.180;2023-02-16T15:36:43;101304.97;;;13.16;77.56
46430;BME280;32131;53.454;-6.180;2023-02-16T15:39:13;101311.06;;;13.19;77.69
46430;BME280;32131;53.454;-6.180;2023-02-16T15:41:53;101319.00;;;13.29;77.58
46430;BME280;32131;53.454;-6.180;2023-02-16T15:45:30;101303.56;;;13.38;77.70
46430;BME280;32131;53.454;-6.180;2023-02-16T15:48:27;101296.97;;;13.65;77.10
46430;BME280;32131;53.454;-6.180;2023-02-16T15:51:26;101304.00;;;13.72;77.27
46430;BME280;32131;53.454;-6.180;2023-02-16T15:54:22;101288.63;;;13.94;76.94
46430;BME280;32131;53.454;-6.180;2023-02-16T15:57:49;101306.91;;;14.06;75.90
46430;BME280;32131;53.454;-6.180;2023-02-16T16:00:44;101298.09;;;13.87;76.78
46430;BME280;32131;53.454;-6.180;2023-02-16T16:06:56;101301.28;;;13.63;78.88
46430;BME280;32131;53.454;-6.180;2023-02-16T16:09:35;101304.66;;;13.56;79.65